Time;durP1;ratioP1;P1;durP2;ratioP2;P2;SDS_P1;SDS_P2;PMS_P1;PMS_P2;Temp;Humidity;BMP_temperature;BMP_pressure;BME280_temperature;BME280_humidity;BME280_pressure;Samples;Min_cycle;Max_cycle;Signal;HPM_P1;HPM_P2
2021/06/26 00:01:13;;;;;;;21.45;17.15;;;17.20;99.90;;;;;;5052530;28;20063;-69
2021/06/26 00:03:40;;;;;;;22.83;17.77;;;17.10;99.90;;;;;;5034257;28;20045;-70
2021/06/26 00:06:07;;;;;;;23.33;17.00;;;17.10;99.90;;;;;;5052315;28;20052;-69
2021/06/26 00:08:35;;;;;;;22.63;16.65;;;17.00;99.90;;;;;;5052033;28;20045;-69
2021/06/26 00:11:02;;;;;;;22.70;16.17;;;17.00;99.90;;;;;;5052384;28;20087;-70
2021/06/26 00:13:29;;;;;;;22.50;16.77;;;16.90;99.90;;;;;;5052629;28;20109;-70
2021/06/26 00:15:57;;;;;;;21.23;16.23;;;16.90;99.90;;;;;;5051692;28;20049;-70
2021/06/26 00:18:24;;;;;;;25.95;17.35;;;16.90;99.90;;;;;;5034078;28;20069;-69
2021/06/26 00:20:51;;;;;;;21.00;17.20;;;16.80;99.90;;;;;;5051123;28;20053;-69
2021/06/26 00:23:21;;;;;;;21.15;15.93;;;16.80;99.90;;;;;;5046730;28;20431;-69
2021/06/26 00:25:48;;;;;;;21.65;16.05;;;16.80;99.90;;;;;;5034067;28;20049;-69
2021/06/26 00:28:15;;;;;;;23.20;17.75;;;16.70;99.90;;;;;;5050379;28;20128;-69
2021/06/26 00:30:43;;;;;;;25.58;17.50;;;16.70;99.90;;;;;;5052126;28;20467;-69
2021/06/26 00:33:10;;;;;;;21.95;15.85;;;16.70;99.90;;;;;;5051808;28;20108;-69
2021/06/26 00:35:37;;;;;;;24.60;18.27;;;16.60;99.90;;;;;;5041440;28;20045;-70
2021/06/26 00:38:09;;;;;;;23.52;19.77;;;16.60;99.90;;;;;;5035002;28;20125;-70
2021/06/26 00:40:36;;;;;;;27.15;20.65;;;16.60;99.90;;;;;;5051600;28;20053;-69
2021/06/26 00:43:05;;;;;;;25.02;19.30;;;16.50;99.90;;;;;;5032619;28;20103;-70
2021/06/26 00:45:32;;;;;;;27.13;19.42;;;16.50;99.90;;;;;;5052117;28;20526;-69
2021/06/26 00:47:59;;;;;;;27.02;19.15;;;16.50;99.90;;;;;;5029051;28;20124;-69
2021/06/26 00:50:29;;;;;;;23.88;19.05;;;16.50;99.90;;;;;;5046859;28;20083;-69
2021/06/26 00:52:57;;;;;;;27.60;19.48;;;16.50;99.90;;;;;;5050833;28;20120;-70
2021/06/26 00:55:24;;;;;;;25.20;19.50;;;16.50;99.90;;;;;;5030280;28;20108;-69
2021/06/26 00:57:58;;;;;;;29.38;20.73;;;16.50;99.90;;;;;;5045759;28;20534;-69
2021/06/26 01:00:27;;;;;;;26.90;19.58;;;16.50;99.90;;;;;;5033524;28;20150;-69
2021/06/26 01:02:55;;;;;;;25.95;18.70;;;16.50;99.90;;;;;;5040657;28;20044;-70
2021/06/26 01:05:23;;;;;;;31.20;22.30;;;16.40;99.90;;;;;;5051120;28;20594;-69
2021/06/26 01:07:52;;;;;;;26.30;19.98;;;16.40;99.90;;;;;;5050723;28;20463;-69
2021/06/26 01:10:20;;;;;;;36.58;21.30;;;16.40;99.90;;;;;;5051121;28;20532;-69
2021/06/26 01:12:47;;;;;;;28.55;20.70;;;16.30;99.90;;;;;;5033048;28;20095;-69
2021/06/26 01:15:16;;;;;;;28.95;21.75;;;16.30;99.90;;;;;;5050830;28;20055;-70
2021/06/26 01:17:44;;;;;;;27.40;19.80;;;16.30;99.90;;;;;;5052682;28;20049;-69
2021/06/26 01:20:12;;;;;;;27.42;20.00;;;16.30;99.90;;;;;;5050863;28;20111;-70
2021/06/26 01:22:58;;;;;;;36.95;26.70;;;16.30;99.90;;;;;;5051001;28;20118;-70
2021/06/26 01:25:33;;;;;;;32.75;23.45;;;16.30;99.90;;;;;;5050816;28;20067;-69
2021/06/26 01:28:03;;;;;;;30.95;23.48;;;16.20;99.90;;;;;;5033421;28;20100;-69
2021/06/26 01:30:35;;;;;;;33.78;24.00;;;16.30;99.90;;;;;;5051527;28;20441;-69
2021/06/26 01:33:04;;;;;;;31.05;24.17;;;16.30;99.90;;;;;;5051268;28;20059;-69
2021/06/26 01:35:32;;;;;;;29.80;21.60;;;16.30;99.90;;;;;;5032912;28;20045;-69
2021/06/26 01:38:02;;;;;;;32.42;21.67;;;16.30;99.90;;;;;;5032342;28;20049;-69
2021/06/26 01:40:29;;;;;;;26.00;19.23;;;16.40;99.90;;;;;;5038334;28;20124;-70
2021/06/26 01:42:58;;;;;;;26.60;20.42;;;16.40;99.90;;;;;;5048404;28;20128;-70
2021/06/26 01:45:26;;;;;;;25.67;19.75;;;16.40;99.90;;;;;;5052717;28;20052;-70
2021/06/26 01:47:56;;;;;;;28.42;19.35;;;16.40;99.90;;;;;;5019090;28;20068;-69
2021/06/26 01:50:28;;;;;;;26.90;19.40;;;16.50;99.90;;;;;;5032956;28;20073;-70
2021/06/26 01:52:57;;;;;;;26.15;20.38;;;16.50;99.90;;;;;;5049931;28;20052;-69
2021/06/26 01:55:24;;;;;;;29.92;20.83;;;16.40;99.90;;;;;;5050624;28;20060;-69
2021/06/26 01:57:52;;;;;;;29.77;21.08;;;16.50;99.90;;;;;;5027538;28;20049;-69
2021/06/26 02:00:23;;;;;;;30.13;21.92;;;16.50;99.90;;;;;;5050914;28;20052;-69
2021/06/26 02:02:51;;;;;;;32.78;24.05;;;16.50;99.90;;;;;;5049855;28;20160;-69
2021/06/26 02:05:22;;;;;;;30.95;21.65;;;16.50;99.90;;;;;;5031532;28;20045;-69
2021/06/26 02:07:51;;;;;;;36.50;26.20;;;16.50;99.90;;;;;;5048633;28;20053;-69
2021/06/26 02:10:20;;;;;;;35.58;25.00;;;16.50;99.90;;;;;;5031781;28;20124;-69
2021/06/26 02:12:47;;;;;;;31.63;22.83;;;16.50;99.90;;;;;;5052139;28;20128;-69
2021/06/26 02:15:14;;;;;;;31.55;22.83;;;16.50;99.90;;;;;;5055382;28;20131;-70
2021/06/26 02:17:42;;;;;;;38.30;26.08;;;16.50;99.90;;;;;;5036906;28;20519;-69
2021/06/26 02:20:10;;;;;;;44.88;27.25;;;16.40;99.90;;;;;;5036760;28;20053;-69
2021/06/26 02:22:37;;;;;;;40.38;28.00;;;16.40;99.90;;;;;;5050799;28;20052;-69
2021/06/26 02:25:06;;;;;;;42.70;28.95;;;16.30;99.90;;;;;;5023271;28;20502;-69
2021/06/26 02:27:34;;;;;;;38.75;27.15;;;16.30;99.90;;;;;;5053532;28;20057;-69
2021/06/26 02:30:03;;;;;;;36.35;26.83;;;16.20;99.90;;;;;;5053036;28;20103;-69
2021/06/26 02:32:30;;;;;;;39.92;28.00;;;16.20;99.90;;;;;;5054349;28;20065;-69
2021/06/26 02:34:58;;;;;;;37.92;27.75;;;16.20;99.90;;;;;;5043848;28;20088;-69
2021/06/26 02:37:25;;;;;;;40.03;28.92;;;16.20;99.90;;;;;;5035712;28;20053;-70
2021/06/26 02:39:53;;;;;;;34.30;24.05;;;16.20;99.90;;;;;;5054394;28;20458;-69
2021/06/26 02:42:21;;;;;;;34.05;24.00;;;16.20;99.90;;;;;;5053069;28;20053;-70
2021/06/26 02:44:48;;;;;;;40.28;27.38;;;16.20;99.90;;;;;;5053095;28;20095;-69
2021/06/26 02:47:18;;;;;;;35.70;24.55;;;16.20;99.90;;;;;;5051816;28;20585;-69
2021/06/26 02:49:45;;;;;;;32.88;23.92;;;16.30;99.90;;;;;;5051566;28;20140;-69
2021/06/26 02:52:12;;;;;;;33.85;23.50;;;16.30;99.90;;;;;;5053383;28;20045;-69
2021/06/26 02:54:40;;;;;;;28.40;20.77;;;16.30;99.90;;;;;;5051449;28;20092;-69
2021/06/26 02:57:07;;;;;;;34.05;23.65;;;16.40;99.90;;;;;;5053230;28;20532;-69
2021/06/26 02:59:34;;;;;;;33.28;24.35;;;16.40;99.90;;;;;;5052746;28;20504;-69
2021/06/26 03:02:02;;;;;;;41.05;27.73;;;16.40;99.90;;;;;;5048841;28;20147;-69
2021/06/26 03:04:29;;;;;;;31.52;23.13;;;16.40;99.90;;;;;;5047969;28;20057;-69
2021/06/26 03:06:57;;;;;;;35.25;25.30;;;16.40;99.90;;;;;;5053182;28;20049;-69
2021/06/26 03:09:24;;;;;;;30.77;22.13;;;16.50;99.90;;;;;;5053496;28;20110;-69
2021/06/26 03:11:52;;;;;;;23.48;17.75;;;16.50;99.90;;;;;;5045939;28;20591;-70
2021/06/26 03:14:19;;;;;;;27.30;18.45;;;16.50;99.90;;;;;;5053454;28;20428;-69
2021/06/26 03:16:46;;;;;;;24.52;17.98;;;16.50;99.90;;;;;;5035608;28;20128;-69
2021/06/26 03:19:14;;;;;;;29.45;19.33;;;16.50;99.90;;;;;;5053439;28;20075;-69
2021/06/26 03:21:42;;;;;;;25.88;18.80;;;16.60;99.90;;;;;;5035137;28;20128;-69
2021/06/26 03:24:09;;;;;;;29.90;21.20;;;16.60;99.90;;;;;;5052753;28;20083;-69
2021/06/26 03:26:36;;;;;;;31.40;21.92;;;16.60;99.90;;;;;;5049078;28;20048;-69
2021/06/26 03:29:04;;;;;;;27.38;20.40;;;16.50;99.90;;;;;;5052910;28;20192;-69
2021/06/26 03:31:32;;;;;;;27.92;20.33;;;16.50;99.90;;;;;;5030786;28;20081;-70
2021/06/26 03:34:03;;;;;;;32.70;23.38;;;16.50;99.90;;;;;;5050987;28;20037;-69
2021/06/26 03:36:31;;;;;;;33.35;24.80;;;16.50;99.90;;;;;;5048025;28;20855;-69
2021/06/26 03:38:58;;;;;;;33.30;23.58;;;16.40;99.90;;;;;;5035192;28;20079;-69
2021/06/26 03:41:26;;;;;;;23.77;18.27;;;16.40;99.90;;;;;;5035490;28;20455;-69
2021/06/26 03:43:57;;;;;;;20.85;15.80;;;16.40;99.90;;;;;;5017255;28;20492;-70
2021/06/26 03:46:26;;;;;;;15.30;11.77;;;16.40;99.90;;;;;;5035017;28;20119;-69
2021/06/26 03:48:54;;;;;;;16.65;10.15;;;16.40;99.90;;;;;;5034264;28;20049;-69
2021/06/26 03:51:22;;;;;;;15.35;10.15;;;16.50;99.90;;;;;;5049836;28;20412;-69
2021/06/26 03:53:50;;;;;;;14.30;10.32;;;16.50;99.90;;;;;;5044736;28;20053;-69
2021/06/26 03:56:17;;;;;;;13.18;9.75;;;16.50;99.90;;;;;;5048764;28;20053;-69
2021/06/26 03:58:45;;;;;;;11.70;8.60;;;16.50;99.90;;;;;;5031278;28;20131;-70
2021/06/26 04:01:12;;;;;;;11.85;8.57;;;16.50;99.90;;;;;;5052348;28;20084;-69
2021/06/26 04:03:39;;;;;;;12.15;8.65;;;16.50;99.90;;;;;;5051725;28;20084;-69
2021/06/26 04:06:06;;;;;;;11.95;9.20;;;16.50;99.90;;;;;;5052751;28;20048;-69
2021/06/26 04:08:34;;;;;;;13.43;10.18;;;16.50;99.90;;;;;;5051788;28;20052;-69
2021/06/26 04:11:01;;;;;;;12.38;8.55;;;16.50;99.90;;;;;;5033665;28;20045;-70
2021/06/26 04:13:28;;;;;;;14.00;9.80;;;16.50;99.90;;;;;;5052143;28;20083;-69
2021/06/26 04:15:56;;;;;;;17.65;10.05;;;16.50;99.90;;;;;;5052112;28;20049;-69
2021/06/26 04:18:23;;;;;;;13.10;9.75;;;16.40;99.90;;;;;;5050705;28;20114;-69
2021/06/26 04:20:50;;;;;;;14.57;10.23;;;16.40;99.90;;;;;;5041184;28;20041;-69
2021/06/26 04:23:18;;;;;;;13.75;10.25;;;16.30;99.90;;;;;;5051975;28;20053;-69
2021/06/26 04:25:48;;;;;;;15.15;10.30;;;16.30;99.90;;;;;;5050819;28;20080;-69
2021/06/26 04:28:15;;;;;;;14.65;10.95;;;16.20;99.90;;;;;;5051728;28;20072;-69
2021/06/26 04:30:45;;;;;;;19.88;11.32;;;16.20;99.90;;;;;;5034616;28;20060;-69
2021/06/26 04:33:12;;;;;;;18.95;11.43;;;16.20;99.90;;;;;;5041739;28;20057;-69
2021/06/26 04:35:39;;;;;;;17.45;11.45;;;16.20;99.90;;;;;;5048182;28;20084;-69
2021/06/26 04:38:08;;;;;;;16.17;10.63;;;16.20;99.90;;;;;;5050199;28;20127;-69
2021/06/26 04:40:35;;;;;;;19.58;12.10;;;16.30;99.90;;;;;;5033132;28;20045;-69
2021/06/26 04:43:04;;;;;;;18.63;11.60;;;16.30;99.90;;;;;;5045716;28;20049;-69
2021/06/26 04:45:33;;;;;;;16.15;9.90;;;16.40;99.90;;;;;;5051104;28;20049;-69
2021/06/26 04:48:01;;;;;;;18.70;11.57;;;16.40;99.90;;;;;;5050287;28;20069;-69
2021/06/26 04:50:31;;;;;;;19.55;11.20;;;16.50;99.90;;;;;;5050144;28;20408;-69
2021/06/26 04:52:59;;;;;;;19.00;13.02;;;16.60;99.90;;;;;;5050147;28;20095;-69
2021/06/26 04:55:26;;;;;;;17.00;11.93;;;16.80;99.90;;;;;;5034151;28;20033;-69
2021/06/26 04:57:53;;;;;;;16.08;11.10;;;16.90;99.90;;;;;;5050452;28;20490;-69
2021/06/26 05:00:21;;;;;;;17.05;12.23;;;17.00;99.90;;;;;;5032452;28;20052;-69
2021/06/26 05:02:48;;;;;;;17.42;11.27;;;17.20;99.90;;;;;;5045649;28;20041;-70
2021/06/26 05:05:16;;;;;;;19.38;11.93;;;17.30;99.90;;;;;;5051734;28;20084;-69
2021/06/26 05:07:44;;;;;;;21.27;13.90;;;17.50;99.90;;;;;;5044155;28;20076;-69
2021/06/26 05:10:12;;;;;;;16.38;12.57;;;17.60;99.90;;;;;;5033538;28;20097;-69
2021/06/26 05:12:44;;;;;;;22.27;14.20;;;17.70;99.90;;;;;;5042939;28;20408;-69
2021/06/26 05:15:13;;;;;;;20.48;14.20;;;17.80;99.90;;;;;;5052196;28;20431;-70
2021/06/26 05:17:40;;;;;;;19.58;13.65;;;18.00;99.90;;;;;;5049692;28;20076;-69
2021/06/26 05:20:14;;;;;;;22.17;15.48;;;18.10;99.90;;;;;;5045048;28;20041;-70
2021/06/26 05:22:42;;;;;;;19.42;13.50;;;18.30;99.90;;;;;;5031045;28;20428;-70
2021/06/26 05:25:10;;;;;;;22.58;16.55;;;18.40;99.90;;;;;;5049524;28;20584;-70
2021/06/26 05:27:37;;;;;;;23.92;15.48;;;18.60;99.90;;;;;;5039476;28;20488;-70
2021/06/26 05:30:05;;;;;;;24.20;16.58;;;18.70;99.90;;;;;;5015204;28;20080;-70
2021/06/26 05:32:33;;;;;;;27.88;18.67;;;18.70;99.90;;;;;;5034123;28;20400;-68
2021/06/26 05:35:00;;;;;;;32.20;23.02;;;18.80;99.90;;;;;;5043018;28;20510;-69
2021/06/26 05:37:28;;;;;;;36.20;23.73;;;18.80;99.90;;;;;;5028421;28;20041;-69
2021/06/26 05:39:55;;;;;;;25.05;18.55;;;18.80;99.90;;;;;;5030272;28;20093;-69
2021/06/26 05:42:22;;;;;;;30.67;21.90;;;18.90;99.90;;;;;;5029074;28;20056;-70
2021/06/26 05:44:50;;;;;;;32.08;23.90;;;18.90;99.90;;;;;;5032935;28;20053;-70
2021/06/26 05:47:17;;;;;;;35.30;24.02;;;19.00;99.90;;;;;;5033012;28;20048;-70
2021/06/26 05:49:44;;;;;;;44.65;26.88;;;19.00;99.90;;;;;;5032915;28;20083;-70
2021/06/26 05:52:12;;;;;;;33.85;21.08;;;18.90;99.90;;;;;;5029316;28;20057;-68
2021/06/26 05:54:39;;;;;;;31.30;21.85;;;18.80;99.90;;;;;;5048179;28;20079;-68
2021/06/26 05:57:07;;;;;;;33.50;24.63;;;18.90;99.90;;;;;;5049070;28;20104;-68
2021/06/26 05:59:35;;;;;;;32.83;24.20;;;18.90;99.90;;;;;;5029221;28;20060;-68
2021/06/26 06:02:02;;;;;;;30.85;23.02;;;19.00;99.90;;;;;;5032861;28;20064;-69
2021/06/26 06:04:30;;;;;;;34.38;22.45;;;19.10;99.90;;;;;;5050893;28;20049;-69
2021/06/26 06:06:58;;;;;;;28.98;21.42;;;19.20;99.90;;;;;;5033211;28;20053;-69
2021/06/26 06:09:25;;;;;;;33.45;22.30;;;19.20;99.90;;;;;;5054645;28;20044;-69
2021/06/26 06:11:53;;;;;;;27.63;19.30;;;19.30;99.90;;;;;;5017399;28;20049;-69
2021/06/26 06:14:20;;;;;;;32.63;22.75;;;19.40;99.90;;;;;;5033918;28;20045;-69
2021/06/26 06:16:48;;;;;;;33.67;23.35;;;19.40;99.90;;;;;;5050968;28;20057;-69
2021/06/26 06:19:15;;;;;;;31.70;23.77;;;19.50;99.90;;;;;;5035891;28;20411;-69
2021/06/26 06:21:43;;;;;;;34.85;25.92;;;19.60;99.90;;;;;;5032987;28;20075;-69
2021/06/26 06:24:10;;;;;;;32.20;23.15;;;19.70;99.90;;;;;;5050854;28;20084;-69
2021/06/26 06:26:37;;;;;;;29.75;22.02;;;19.80;99.90;;;;;;5045777;28;20394;-70
2021/06/26 06:29:05;;;;;;;30.73;22.25;;;20.00;99.90;;;;;;5041888;28;20078;-70
2021/06/26 06:31:32;;;;;;;31.65;22.50;;;20.10;99.90;;;;;;5046776;28;20049;-70
2021/06/26 06:34:00;;;;;;;30.40;22.00;;;20.20;99.90;;;;;;5032199;28;20065;-70
2021/06/26 06:36:27;;;;;;;35.20;27.20;;;20.20;99.90;;;;;;5045953;28;20049;-70
2021/06/26 06:38:55;;;;;;;29.95;23.13;;;20.30;99.90;;;;;;5032410;28;20048;-70
2021/06/26 06:41:22;;;;;;;35.72;25.63;;;20.50;99.90;;;;;;5050712;28;20049;-70
2021/06/26 06:43:49;;;;;;;39.10;26.90;;;20.60;99.90;;;;;;5031665;28;20079;-70
2021/06/26 06:46:17;;;;;;;31.55;23.67;;;20.60;99.90;;;;;;5041367;28;20059;-70
2021/06/26 06:48:44;;;;;;;30.02;22.83;;;20.80;99.90;;;;;;5046201;28;20055;-70
2021/06/26 06:51:12;;;;;;;31.33;25.13;;;21.10;99.90;;;;;;5030475;28;20392;-70
2021/06/26 06:53:39;;;;;;;33.22;23.67;;;21.50;99.90;;;;;;5023294;28;20551;-70
2021/06/26 06:56:07;;;;;;;29.70;23.05;;;21.50;99.90;;;;;;5035444;28;20412;-70
2021/06/26 06:58:34;;;;;;;34.00;25.25;;;21.80;99.90;;;;;;5031925;28;20075;-70
2021/06/26 07:01:01;;;;;;;32.72;22.77;;;21.90;99.90;;;;;;5022593;28;20053;-70
2021/06/26 07:03:29;;;;;;;31.95;24.75;;;22.10;99.90;;;;;;5035613;28;20148;-69
2021/06/26 07:05:56;;;;;;;35.92;26.75;;;22.30;99.90;;;;;;5053942;28;20060;-70
2021/06/26 07:08:24;;;;;;;26.00;20.52;;;22.30;99.90;;;;;;5048923;28;20454;-69
2021/06/26 07:10:52;;;;;;;31.98;24.58;;;22.40;99.90;;;;;;5049219;28;20080;-70
2021/06/26 07:13:20;;;;;;;30.70;24.10;;;22.50;99.90;;;;;;5035178;28;20046;-69
2021/06/26 07:15:47;;;;;;;25.85;18.80;;;22.40;99.90;;;;;;5019711;28;20071;-68
2021/06/26 07:18:15;;;;;;;34.33;25.65;;;22.40;99.90;;;;;;5048407;28;20045;-68
2021/06/26 07:20:42;;;;;;;35.08;25.45;;;22.30;99.90;;;;;;5053426;28;20049;-68
2021/06/26 07:23:11;;;;;;;32.25;25.73;;;22.30;99.90;;;;;;5035463;28;20049;-69
2021/06/26 07:25:39;;;;;;;27.20;22.90;;;22.30;99.90;;;;;;5053697;28;20087;-69
2021/06/26 07:28:06;;;;;;;28.33;22.70;;;22.50;99.90;;;;;;5052821;28;20132;-69
2021/06/26 07:30:36;;;;;;;29.85;21.20;;;22.70;99.90;;;;;;5044401;28;20102;-69
2021/06/26 07:33:03;;;;;;;31.00;24.30;;;22.90;99.90;;;;;;5048416;28;20073;-69
2021/06/26 07:35:31;;;;;;;31.45;25.10;;;23.10;99.90;;;;;;5047118;28;20053;-69
2021/06/26 07:37:59;;;;;;;34.50;26.25;;;23.20;99.90;;;;;;5053340;28;20580;-69
2021/06/26 07:40:27;;;;;;;28.10;21.50;;;23.10;99.90;;;;;;5052900;28;20052;-69
2021/06/26 07:42:55;;;;;;;23.27;19.70;;;23.20;99.90;;;;;;5052151;28;20053;-69
2021/06/26 07:45:22;;;;;;;24.50;19.85;;;23.30;99.90;;;;;;5053886;28;20049;-69
2021/06/26 07:47:50;;;;;;;31.88;23.25;;;23.50;99.90;;;;;;5052469;28;20053;-69
2021/06/26 07:50:17;;;;;;;31.38;24.67;;;23.60;99.90;;;;;;5053407;28;20080;-69
2021/06/26 07:52:44;;;;;;;27.08;21.63;;;23.50;99.90;;;;;;5052863;28;20061;-70
2021/06/26 07:55:12;;;;;;;30.90;23.58;;;23.50;99.90;;;;;;5018528;28;20055;-70
2021/06/26 07:57:39;;;;;;;30.15;22.67;;;23.70;99.90;;;;;;5052295;28;20045;-71
2021/06/26 08:00:08;;;;;;;33.00;24.17;;;23.80;99.90;;;;;;5035009;28;20057;-70
2021/06/26 08:02:35;;;;;;;25.40;19.63;;;23.70;99.90;;;;;;5051534;28;20535;-69
2021/06/26 08:05:04;;;;;;;29.70;19.42;;;23.60;99.90;;;;;;5034871;28;20079;-69
2021/06/26 08:07:50;;;;;;;28.10;22.00;;;23.70;99.90;;;;;;5045273;28;20119;-69
2021/06/26 08:10:18;;;;;;;25.08;18.48;;;23.60;99.90;;;;;;5043767;28;20438;-70
2021/06/26 08:12:45;;;;;;;21.92;17.92;;;23.50;99.90;;;;;;5052588;28;20041;-70
2021/06/26 08:15:13;;;;;;;27.52;21.25;;;23.70;99.90;;;;;;5052601;28;20071;-69
2021/06/26 08:17:40;;;;;;;27.48;21.10;;;23.60;99.90;;;;;;5034002;28;20068;-69
2021/06/26 08:20:08;;;;;;;25.52;20.02;;;23.60;99.90;;;;;;5027882;28;20045;-70
2021/06/26 08:22:35;;;;;;;36.13;24.33;;;23.70;99.90;;;;;;5033070;28;20167;-69
2021/06/26 08:25:03;;;;;;;27.98;23.08;;;23.50;99.90;;;;;;5037048;28;20092;-69
2021/06/26 08:27:32;;;;;;;27.80;21.40;;;23.30;99.90;;;;;;5033901;28;20049;-68
2021/06/26 08:30:04;;;;;;;25.60;20.48;;;23.20;99.90;;;;;;5033142;28;20047;-71
2021/06/26 08:32:33;;;;;;;30.02;23.52;;;23.10;99.90;;;;;;5033927;28;20041;-69
2021/06/26 08:35:00;;;;;;;28.00;22.55;;;22.90;99.90;;;;;;5046723;28;20040;-69
2021/06/26 08:37:33;;;;;;;28.10;21.80;;;22.70;99.90;;;;;;5051645;28;20057;-70
2021/06/26 08:40:01;;;;;;;26.50;21.70;;;22.70;99.90;;;;;;5033280;28;20052;-71
2021/06/26 08:42:29;;;;;;;26.15;20.45;;;22.70;99.90;;;;;;5034334;28;20451;-71
2021/06/26 08:45:03;;;;;;;26.25;21.35;;;22.60;99.90;;;;;;5051235;28;20045;-71
2021/06/26 08:47:30;;;;;;;22.88;17.67;;;22.70;99.90;;;;;;5039444;28;20084;-71
2021/06/26 08:49:58;;;;;;;28.27;20.50;;;22.90;99.90;;;;;;5032747;28;20099;-71
2021/06/26 08:52:25;;;;;;;34.75;23.77;;;23.00;99.90;;;;;;5051238;28;20500;-70
2021/06/26 08:54:55;;;;;;;23.65;19.40;;;22.70;99.90;;;;;;5049425;28;20591;-70
2021/06/26 08:57:26;;;;;;;27.15;19.50;;;22.50;99.90;;;;;;5050863;28;20096;-71
2021/06/26 08:59:54;;;;;;;30.17;23.45;;;22.50;99.90;;;;;;5050528;28;20103;-70
2021/06/26 09:02:23;;;;;;;27.58;21.13;;;22.10;99.90;;;;;;5016520;28;20404;-71
2021/06/26 09:04:50;;;;;;;25.98;21.00;;;22.10;99.90;;;;;;5051010;28;20130;-70
2021/06/26 09:07:28;;;;;;;27.38;20.98;;;22.30;99.90;;;;;;5041600;28;20052;-71
2021/06/26 09:09:56;;;;;;;26.25;20.38;;;22.40;99.90;;;;;;5047009;28;20123;-71
2021/06/26 09:12:26;;;;;;;24.00;19.75;;;22.60;99.90;;;;;;5031921;28;20046;-70
2021/06/26 09:14:54;;;;;;;26.98;20.38;;;22.70;99.90;;;;;;5034572;28;20123;-70
2021/06/26 09:17:31;;;;;;;30.98;22.55;;;22.70;99.90;;;;;;5050776;28;20045;-70
2021/06/26 09:20:05;;;;;;;26.55;20.77;;;22.60;99.90;;;;;;5034529;28;20107;-70
2021/06/26 09:22:52;;;;;;;25.98;19.38;;;22.60;99.90;;;;;;5035513;28;20098;-70
2021/06/26 09:25:35;;;;;;;23.63;19.48;;;22.90;99.90;;;;;;5053451;28;20041;-70
2021/06/26 09:28:06;;;;;;;25.17;18.58;;;23.00;99.90;;;;;;5042943;28;20119;-70
2021/06/26 09:30:42;;;;;;;23.38;18.27;;;23.00;99.90;;;;;;5032502;28;20047;-70
2021/06/26 09:33:14;;;;;;;25.55;19.20;;;23.10;99.90;;;;;;5026665;28;20133;-71
2021/06/26 09:35:45;;;;;;;;;;;22.90;99.90;;;;;;5033602;28;20408;-71
2021/06/26 09:38:13;;;;;;;18.27;14.52;;;23.00;99.90;;;;;;5049295;28;19932;-71
2021/06/26 09:40:42;;;;;;;23.63;17.55;;;23.10;99.90;;;;;;5033712;28;20048;-71
2021/06/26 09:43:14;;;;;;;23.45;17.42;;;23.20;99.90;;;;;;5011492;28;20042;-71
2021/06/26 09:45:41;;;;;;;21.40;17.08;;;23.30;99.90;;;;;;5041177;28;20061;-71
2021/06/26 09:48:08;;;;;;;19.38;15.95;;;23.60;99.90;;;;;;5028110;28;20089;-71
2021/06/26 09:50:38;;;;;;;21.75;15.85;;;23.70;99.90;;;;;;5045907;28;20053;-69
2021/06/26 09:53:06;;;;;;;22.42;16.90;;;23.90;99.90;;;;;;5013066;28;20057;-71
2021/06/26 09:55:40;;;;;;;17.33;14.35;;;23.70;99.90;;;;;;5020834;28;20149;-70
2021/06/26 09:58:12;;;;;;;18.95;14.93;;;23.80;99.90;;;;;;5046902;28;20095;-70
2021/06/26 10:00:41;;;;;;;23.05;17.73;;;23.90;99.90;;;;;;5032622;28;20103;-70
2021/06/26 10:03:09;;;;;;;23.63;18.23;;;24.00;99.90;;;;;;5028096;28;20059;-70
2021/06/26 10:05:38;;;;;;;21.48;14.63;;;23.70;99.90;;;;;;5049547;28;20053;-70
2021/06/26 10:08:07;;;;;;;21.17;17.08;;;23.90;99.90;;;;;;5049281;28;20061;-71
2021/06/26 10:10:34;;;;;;;17.65;15.05;;;24.00;99.90;;;;;;5030378;28;20045;-70
2021/06/26 10:13:03;;;;;;;21.33;15.82;;;24.00;99.90;;;;;;5050338;28;20403;-70
2021/06/26 10:15:32;;;;;;;19.30;13.98;;;24.20;99.90;;;;;;5023042;28;20696;-70
2021/06/26 10:18:00;;;;;;;15.38;13.23;;;24.20;99.90;;;;;;5049583;28;20083;-70
2021/06/26 10:20:29;;;;;;;16.25;12.68;;;24.20;99.90;;;;;;5049649;28;20077;-70
2021/06/26 10:23:02;;;;;;;16.92;12.18;;;24.40;99.90;;;;;;5049001;28;20056;-70
2021/06/26 10:25:37;;;;;;;17.48;12.88;;;24.50;99.90;;;;;;5049238;28;20048;-70
2021/06/26 10:28:05;;;;;;;12.95;10.73;;;24.70;99.90;;;;;;5050235;28;20061;-70
2021/06/26 10:30:34;;;;;;;12.02;10.73;;;25.00;99.90;;;;;;5040634;28;20080;-70
2021/06/26 10:33:04;;;;;;;12.18;9.10;;;25.20;99.90;;;;;;5026512;28;20034;-70
2021/06/26 10:35:34;;;;;;;11.93;10.05;;;25.30;99.90;;;;;;5051021;28;20037;-70
2021/06/26 10:38:05;;;;;;;13.40;9.15;;;25.30;99.90;;;;;;5048623;28;20511;-70
2021/06/26 10:40:47;;;;;;;13.50;10.63;;;25.30;99.90;;;;;;5053226;28;20080;-70
2021/06/26 10:43:24;;;;;;;;;;;25.40;99.90;;;;;;5051170;28;20091;-70
2021/06/26 10:46:08;;;;;;;13.02;10.57;;;25.50;99.90;;;;;;5055527;28;20032;-70
2021/06/26 10:49:03;;;;;;;12.43;9.82;;;25.50;99.90;;;;;;5039614;28;20364;-70
2021/06/26 10:51:40;;;;;;;12.75;9.95;;;25.60;99.90;;;;;;5056895;28;20507;-70
2021/06/26 10:54:18;;;;;;;12.18;9.63;;;25.70;99.90;;;;;;5061128;28;20132;-70
2021/06/26 10:56:49;;;;;;;12.45;10.10;;;25.90;99.90;;;;;;5036190;28;20071;-70
2021/06/26 10:59:19;;;;;;;11.93;10.43;;;25.90;99.90;;;;;;5047923;28;20503;-70
2021/06/26 11:01:58;;;;;;;10.75;9.02;;;26.20;99.90;;;;;;5053545;28;20059;-71
2021/06/26 11:04:27;;;;;;;11.75;9.10;;;26.60;99.90;;;;;;5051596;28;20057;-71
2021/06/26 11:07:05;;;;;;;9.18;7.38;;;26.70;99.90;;;;;;5042915;28;20563;-70
2021/06/26 11:09:43;;;;;;;11.10;8.52;;;26.80;99.90;;;;;;5053518;28;20475;-70
2021/06/26 11:12:15;;;;;;;10.63;9.07;;;26.60;99.90;;;;;;5052625;28;20500;-70
2021/06/26 11:14:57;;;;;;;9.88;7.20;;;26.90;99.90;;;;;;5035966;28;20138;-70
2021/06/26 11:17:37;;;;;;;;;;;27.50;99.90;;;;;;5056618;28;20053;-71
2021/06/26 11:20:15;;;;;;;8.07;6.93;;;28.10;99.90;;;;;;5048253;28;20470;-71
2021/06/26 11:22:57;;;;;;;9.73;7.70;;;28.60;99.90;;;;;;5053466;28;20456;-70
2021/06/26 11:25:29;;;;;;;9.73;7.63;;;28.80;99.90;;;;;;5053230;28;20084;-71
2021/06/26 11:28:03;;;;;;;8.45;6.07;;;29.00;99.90;;;;;;5053886;28;20081;-70
2021/06/26 11:30:32;;;;;;;9.43;7.53;;;28.90;99.90;;;;;;5052494;28;20053;-71
2021/06/26 11:33:01;;;;;;;8.20;6.65;;;29.00;99.90;;;;;;5042910;28;20120;-71
2021/06/26 11:35:36;;;;;;;8.20;6.60;;;28.80;99.90;;;;;;5032059;28;20500;-71
2021/06/26 11:38:05;;;;;;;10.63;9.05;;;28.70;99.90;;;;;;5052754;28;20079;-71
2021/06/26 11:40:33;;;;;;;9.88;8.27;;;28.70;99.90;;;;;;5052671;28;20053;-70
2021/06/26 11:43:05;;;;;;;7.97;6.97;;;29.10;99.90;;;;;;5032406;28;20045;-71
2021/06/26 11:45:33;;;;;;;;;;;29.50;99.90;;;;;;5018051;28;20041;-71
2021/06/26 11:48:04;;;;;;;9.38;6.88;;;30.30;99.90;;;;;;5050678;28;19924;-71
2021/06/26 11:50:32;;;;;;;6.82;6.13;;;30.40;99.90;;;;;;5062200;28;20124;-71
2021/06/26 11:53:10;;;;;;;9.25;6.30;;;30.20;99.90;;;;;;5052397;28;20045;-70
2021/06/26 11:55:55;;;;;;;7.93;6.40;;;30.10;99.90;;;;;;5022538;28;20088;-70
2021/06/26 11:58:23;;;;;;;7.68;6.05;;;29.90;99.90;;;;;;5017651;28;20080;-70
2021/06/26 12:01:01;;;;;;;6.97;6.03;;;29.30;99.90;;;;;;5035528;28;20041;-71
2021/06/26 12:03:30;;;;;;;9.63;6.40;;;29.30;99.90;;;;;;5048231;28;20104;-71
2021/06/26 12:06:00;;;;;;;7.85;6.90;;;29.40;99.90;;;;;;5027706;28;20071;-69
2021/06/26 12:08:30;;;;;;;9.48;7.43;;;29.40;99.90;;;;;;5019959;28;20048;-70
2021/06/26 12:10:58;;;;;;;11.13;8.82;;;29.20;99.90;;;;;;5038114;28;20503;-70
2021/06/26 12:13:25;;;;;;;7.70;6.70;;;29.00;99.90;;;;;;5036326;28;20083;-70
2021/06/26 12:15:52;;;;;;;7.43;6.10;;;28.90;99.90;;;;;;5037597;28;20069;-70
2021/06/26 12:18:20;;;;;;;7.55;6.32;;;29.10;99.90;;;;;;5046645;28;20060;-70
2021/06/26 12:20:48;;;;;;;7.00;6.03;;;29.10;99.90;;;;;;5052666;28;20049;-70
2021/06/26 12:23:15;;;;;;;8.80;6.05;;;29.00;99.90;;;;;;5033475;28;20689;-70
2021/06/26 12:25:44;;;;;;;7.97;5.72;;;28.90;99.90;;;;;;5051874;28;20049;-70
2021/06/26 12:28:12;;;;;;;7.25;5.90;;;28.60;99.90;;;;;;5048817;28;20080;-70
2021/06/26 12:30:41;;;;;;;7.15;5.45;;;28.40;99.90;;;;;;5050736;28;20488;-70
2021/06/26 12:33:11;;;;;;;6.38;5.10;;;28.40;99.90;;;;;;5048762;28;20142;-71
2021/06/26 12:35:39;;;;;;;8.00;5.03;;;28.50;99.90;;;;;;5023393;28;20050;-72
2021/06/26 12:38:07;;;;;;;6.38;4.70;;;28.50;99.90;;;;;;5016694;28;20462;-71
2021/06/26 12:40:44;;;;;;;5.75;5.00;;;28.30;99.90;;;;;;5064835;28;20044;-72